Time;durP1;ratioP1;P1;durP2;ratioP2;P2;SDS_P1;SDS_P2;PMS_P1;PMS_P2;Temp;Humidity;BMP_temperature;BMP_pressure;BME280_temperature;BME280_humidity;BME280_pressure;Samples;Min_cycle;Max_cycle;Signal;HPM_P1;HPM_P2
2021/06/28 00:00:30;;;;;;;;;;;;;;;;;;1448147;41;7071;-60
2021/06/28 00:01:32;;;;;;;;;;;;;;;;;;1450634;41;7008;-60
2021/06/28 00:02:35;;;;;;;;;;;;;;;;;;1450305;41;7268;-60
2021/06/28 00:03:38;;;;;;;;;;;;;;;;;;1450434;41;7017;-59
2021/06/28 00:04:41;;;;;;;;;;;;;;;;;;1449882;41;7008;-60
2021/06/28 00:05:46;;;;;;;;;;;;;;;;;;1445640;41;7008;-60
2021/06/28 00:06:48;;;;;;;;;;;;;;;;;;1445823;41;7119;-60
2021/06/28 00:07:51;;;;;;;;;;;;;;;;;;1450325;41;7024;-60
2021/06/28 00:08:55;;;;;;;;;;;;;;;;;;1450255;41;7223;-60
2021/06/28 00:09:57;;;;;;;;;;;;;;;;;;1448946;41;7040;-60
2021/06/28 00:11:02;;;;;;;;;;;;;;;;;;1446583;41;7012;-60
2021/06/28 00:12:04;;;;;;;;;;;;;;;;;;1446871;41;7001;-60
2021/06/28 00:13:07;;;;;;;;;;;;;;;;;;1449101;41;7058;-60
2021/06/28 00:14:09;;;;;;;;;;;;;;;;;;1450209;41;7048;-60
2021/06/28 00:15:14;;;;;;;;;;;;;;;;;;1450382;41;7008;-60
2021/06/28 00:16:16;;;;;;;;;;;;;;;;;;1450483;41;7920;-60
2021/06/28 00:17:18;;;;;;;;;;;;;;;;;;1450210;41;7004;-60
2021/06/28 00:18:21;;;;;;;;;;;;;;;;;;1451005;41;7013;-60
2021/06/28 00:19:23;;;;;;;;;;;;;;;;;;1449998;41;7084;-60
2021/06/28 00:20:26;;;;;;;;;;;;;;;;;;1445632;41;7008;-60
2021/06/28 00:21:29;;;;;;;;;;;;;;;;;;1445895;41;7246;-60
2021/06/28 00:22:31;;;;;;;;;;;;;;;;;;1445662;41;8235;-60
2021/06/28 00:23:35;;;;;;;;;;;;;;;;;;1441366;41;7013;-60
2021/06/28 00:24:37;;;;;;;;;;;;;;;;;;1441540;41;7013;-60
2021/06/28 00:25:40;;;;;;;;;;;;;;;;;;1445741;41;7012;-60
2021/06/28 00:26:43;;;;;;;;;;;;;;;;;;1446032;41;7028;-60
2021/06/28 00:27:46;;;;;;;;;;;;;;;;;;1445653;41;7937;-60
2021/06/28 00:29:04;;;;;;;;;;;;;;;;;;1445874;41;7017;-60
2021/06/28 00:30:07;;;;;;;;;;;;;;;;;;1446381;41;7044;-60
2021/06/28 00:31:10;;;;;;;;;;;;;;;;;;1446578;41;7008;-60
2021/06/28 00:32:12;;;;;;;;;;;;;;;;;;1446574;41;7028;-60
2021/06/28 00:33:17;;;;;;;;;;;;;;;;;;1447669;41;7943;-60
2021/06/28 00:34:20;;;;;;;;;;;;;;;;;;1449682;41;7046;-60
2021/06/28 00:35:23;;;;;;;;;;;;;;;;;;1449922;41;7032;-60
2021/06/28 00:36:25;;;;;;;;;;;;;;;;;;1449907;41;7046;-60
2021/06/28 00:37:27;;;;;;;;;;;;;;;;;;1449658;41;7360;-60
2021/06/28 00:38:30;;;;;;;;;;;;;;;;;;1446383;41;7048;-60
2021/06/28 00:39:33;;;;;;;;;;;;;;;;;;1446484;41;7949;-60
2021/06/28 00:40:36;;;;;;;;;;;;;;;;;;1449641;41;7113;-60
2021/06/28 00:41:38;;;;;;;;;;;;;;;;;;1450017;41;7248;-59
2021/06/28 00:42:41;;;;;;;;;;;;;;;;;;1447211;41;7005;-60
2021/06/28 00:43:43;;;;;;;;;;;;;;;;;;1447194;41;7000;-60
2021/06/28 00:44:46;;;;;;;;;;;;;;;;;;1446123;41;7048;-60
2021/06/28 00:45:48;;;;;;;;;;;;;;;;;;1449658;41;7867;-60
2021/06/28 00:46:51;;;;;;;;;;;;;;;;;;1449747;41;7021;-60
2021/06/28 00:47:55;;;;;;;;;;;;;;;;;;1449648;41;8018;-60
2021/06/28 00:48:58;;;;;;;;;;;;;;;;;;1450438;41;7044;-59
2021/06/28 00:50:00;;;;;;;;;;;;;;;;;;1450218;41;7000;-60
2021/06/28 00:51:03;;;;;;;;;;;;;;;;;;1449948;41;7229;-60
2021/06/28 00:52:06;;;;;;;;;;;;;;;;;;1450278;41;7017;-60
2021/06/28 00:53:10;;;;;;;;;;;;;;;;;;1450246;41;8043;-60
2021/06/28 00:54:13;;;;;;;;;;;;;;;;;;1449415;41;7525;-60
2021/06/28 00:55:16;;;;;;;;;;;;;;;;;;1446391;41;7012;-60
2021/06/28 00:56:18;;;;;;;;;;;;;;;;;;1446666;41;7009;-60
2021/06/28 00:57:20;;;;;;;;;;;;;;;;;;1449950;41;7039;-60
2021/06/28 00:58:23;;;;;;;;;;;;;;;;;;1449863;41;7118;-60
2021/06/28 00:59:27;;;;;;;;;;;;;;;;;;1449933;41;7044;-60
2021/06/28 01:00:29;;;;;;;;;;;;;;;;;;1450553;40;7040;-60
2021/06/28 01:01:32;;;;;;;;;;;;;;;;;;1450664;41;7009;-60
2021/06/28 01:02:35;;;;;;;;;;;;;;;;;;1451223;41;7001;-60
2021/06/28 01:03:39;;;;;;;;;;;;;;;;;;1450928;41;7260;-60
2021/06/28 01:04:41;;;;;;;;;;;;;;;;;;1450662;41;7008;-60
2021/06/28 01:05:44;;;;;;;;;;;;;;;;;;1448102;41;8490;-60
2021/06/28 01:06:46;;;;;;;;;;;;;;;;;;1446814;41;7952;-61
2021/06/28 01:07:48;;;;;;;;;;;;;;;;;;1446792;41;7017;-60
2021/06/28 01:08:51;;;;;;;;;;;;;;;;;;1447132;41;7236;-60
2021/06/28 01:09:53;;;;;;;;;;;;;;;;;;1446944;41;7017;-60
2021/06/28 01:10:56;;;;;;;;;;;;;;;;;;1450267;41;7028;-60
2021/06/28 01:12:00;;;;;;;;;;;;;;;;;;1447204;41;7332;-60
2021/06/28 01:13:02;;;;;;;;;;;;;;;;;;1447158;41;7932;-58
2021/06/28 01:14:05;;;;;;;;;;;;;;;;;;1446763;41;7111;-60
2021/06/28 01:15:08;;;;;;;;;;;;;;;;;;1446790;41;7004;-60
2021/06/28 01:16:11;;;;;;;;;;;;;;;;;;1447163;41;7000;-60
2021/06/28 01:17:14;;;;;;;;;;;;;;;;;;1447362;41;7016;-60
2021/06/28 01:18:16;;;;;;;;;;;;;;;;;;1450480;41;7004;-59
2021/06/28 01:19:22;;;;;;;;;;;;;;;;;;1450838;41;7005;-60
2021/06/28 01:20:26;;;;;;;;;;;;;;;;;;1450201;41;7080;-60
2021/06/28 01:21:28;;;;;;;;;;;;;;;;;;1450680;41;7012;-60
2021/06/28 01:22:33;;;;;;;;;;;;;;;;;;1450313;41;7238;-60
2021/06/28 01:23:35;;;;;;;;;;;;;;;;;;1450341;41;7000;-59
2021/06/28 01:24:38;;;;;;;;;;;;;;;;;;1450287;41;7000;-60
2021/06/28 01:25:40;;;;;;;;;;;;;;;;;;1450079;41;7031;-60
2021/06/28 01:26:43;;;;;;;;;;;;;;;;;;1450291;41;7040;-60
2021/06/28 01:27:45;;;;;;;;;;;;;;;;;;1450376;41;7016;-60
2021/06/28 01:28:48;;;;;;;;;;;;;;;;;;1449352;41;7008;-60
2021/06/28 01:29:51;;;;;;;;;;;;;;;;;;1450660;41;7020;-60
2021/06/28 01:30:55;;;;;;;;;;;;;;;;;;1450317;41;7000;-60
2021/06/28 01:31:57;;;;;;;;;;;;;;;;;;1450261;41;7008;-59
2021/06/28 01:33:00;;;;;;;;;;;;;;;;;;1450174;41;8299;-60
2021/06/28 01:34:02;;;;;;;;;;;;;;;;;;1450137;41;7009;-60
2021/06/28 01:35:05;;;;;;;;;;;;;;;;;;1450499;41;7000;-60
2021/06/28 01:36:08;;;;;;;;;;;;;;;;;;1450296;41;7056;-60
2021/06/28 01:37:11;;;;;;;;;;;;;;;;;;1450563;41;7014;-60
2021/06/28 01:38:14;;;;;;;;;;;;;;;;;;1449815;41;7040;-60
2021/06/28 01:39:16;;;;;;;;;;;;;;;;;;1447549;41;7008;-60
2021/06/28 01:40:19;;;;;;;;;;;;;;;;;;1446799;41;7009;-60
2021/06/28 01:41:21;;;;;;;;;;;;;;;;;;1448836;41;7039;-60
2021/06/28 01:42:25;;;;;;;;;;;;;;;;;;1448914;41;7013;-60
2021/06/28 01:43:28;;;;;;;;;;;;;;;;;;1450945;41;7040;-60
2021/06/28 01:44:31;;;;;;;;;;;;;;;;;;1450180;41;7119;-60
2021/06/28 01:45:34;;;;;;;;;;;;;;;;;;1449316;41;7113;-60
2021/06/28 01:46:37;;;;;;;;;;;;;;;;;;1449387;41;7004;-60
2021/06/28 01:47:41;;;;;;;;;;;;;;;;;;1450706;41;7164;-60
2021/06/28 01:48:43;;;;;;;;;;;;;;;;;;1450534;41;7068;-59
2021/06/28 01:49:46;;;;;;;;;;;;;;;;;;1449681;41;7032;-60
2021/06/28 01:50:49;;;;;;;;;;;;;;;;;;1446636;41;7001;-60
2021/06/28 01:51:52;;;;;;;;;;;;;;;;;;1446424;41;7941;-60
2021/06/28 01:52:56;;;;;;;;;;;;;;;;;;1450701;41;7033;-60
2021/06/28 01:53:58;;;;;;;;;;;;;;;;;;1450768;41;7085;-60
2021/06/28 01:55:03;;;;;;;;;;;;;;;;;;1450786;41;7028;-59
2021/06/28 01:56:06;;;;;;;;;;;;;;;;;;1450509;41;7017;-59
2021/06/28 01:57:09;;;;;;;;;;;;;;;;;;1450809;41;7028;-60
2021/06/28 01:58:12;;;;;;;;;;;;;;;;;;1450357;41;7193;-60
2021/06/28 01:59:15;;;;;;;;;;;;;;;;;;1450589;41;7008;-60
2021/06/28 02:00:20;;;;;;;;;;;;;;;;;;1450551;41;7012;-60
2021/06/28 02:01:22;;;;;;;;;;;;;;;;;;1450440;41;7216;-60
2021/06/28 02:02:24;;;;;;;;;;;;;;;;;;1450609;41;7013;-60
2021/06/28 02:03:27;;;;;;;;;;;;;;;;;;1450643;41;7113;-60
2021/06/28 02:04:30;;;;;;;;;;;;;;;;;;1451234;41;7310;-60
2021/06/28 02:05:34;;;;;;;;;;;;;;;;;;1451025;41;7000;-59
2021/06/28 02:06:37;;;;;;;;;;;;;;;;;;1447874;41;7004;-60
2021/06/28 02:07:40;;;;;;;;;;;;;;;;;;1448874;41;7128;-60
2021/06/28 02:08:42;;;;;;;;;;;;;;;;;;1446647;41;7275;-60
2021/06/28 02:09:45;;;;;;;;;;;;;;;;;;1446640;41;7000;-60
2021/06/28 02:10:50;;;;;;;;;;;;;;;;;;1447034;41;7000;-60
2021/06/28 02:11:52;;;;;;;;;;;;;;;;;;1446483;41;7009;-59
2021/06/28 02:12:55;;;;;;;;;;;;;;;;;;1448362;41;7040;-60
2021/06/28 02:13:57;;;;;;;;;;;;;;;;;;1450935;41;7045;-60
2021/06/28 02:14:59;;;;;;;;;;;;;;;;;;1450534;41;7051;-60
2021/06/28 02:16:03;;;;;;;;;;;;;;;;;;1450467;41;7112;-60
2021/06/28 02:17:05;;;;;;;;;;;;;;;;;;1450507;41;8379;-60
2021/06/28 02:18:08;;;;;;;;;;;;;;;;;;1450499;41;7024;-59
2021/06/28 02:19:11;;;;;;;;;;;;;;;;;;1450912;41;7263;-60
2021/06/28 02:20:13;;;;;;;;;;;;;;;;;;1448364;41;7996;-60
2021/06/28 02:21:16;;;;;;;;;;;;;;;;;;1450605;41;7004;-60
2021/06/28 02:22:18;;;;;;;;;;;;;;;;;;1450243;41;7005;-60
2021/06/28 02:23:20;;;;;;;;;;;;;;;;;;1450216;41;7040;-59
2021/06/28 02:24:24;;;;;;;;;;;;;;;;;;1450335;41;7028;-60
2021/06/28 02:25:27;;;;;;;;;;;;;;;;;;1449917;41;8441;-60
2021/06/28 02:26:29;;;;;;;;;;;;;;;;;;1449138;41;7012;-60
2021/06/28 02:27:32;;;;;;;;;;;;;;;;;;1446688;41;7060;-60
2021/06/28 02:28:36;;;;;;;;;;;;;;;;;;1446511;41;7009;-60
2021/06/28 02:29:38;;;;;;;;;;;;;;;;;;1449995;41;7122;-60
2021/06/28 02:30:40;;;;;;;;;;;;;;;;;;1450024;41;7236;-60
2021/06/28 02:31:44;;;;;;;;;;;;;;;;;;1450330;41;7110;-60
2021/06/28 02:32:47;;;;;;;;;;;;;;;;;;1450153;41;7064;-60
2021/06/28 02:33:51;;;;;;;;;;;;;;;;;;1450339;41;7004;-60
2021/06/28 02:34:53;;;;;;;;;;;;;;;;;;1450333;41;7209;-60
2021/06/28 02:35:56;;;;;;;;;;;;;;;;;;1450198;41;7028;-60
2021/06/28 02:36:58;;;;;;;;;;;;;;;;;;1450553;41;7123;-60
2021/06/28 02:38:01;;;;;;;;;;;;;;;;;;1450026;41;7011;-60
2021/06/28 02:39:04;;;;;;;;;;;;;;;;;;1446619;41;7000;-60
2021/06/28 02:40:10;;;;;;;;;;;;;;;;;;1446931;41;7020;-60
2021/06/28 02:41:13;;;;;;;;;;;;;;;;;;1446704;41;7013;-59
2021/06/28 02:42:16;;;;;;;;;;;;;;;;;;1446924;41;7000;-60
2021/06/28 02:43:19;;;;;;;;;;;;;;;;;;1446757;41;7011;-60
2021/06/28 02:44:22;;;;;;;;;;;;;;;;;;1448387;41;7000;-60
2021/06/28 02:45:24;;;;;;;;;;;;;;;;;;1449031;41;7917;-59
2021/06/28 02:46:27;;;;;;;;;;;;;;;;;;1447323;41;7200;-59
2021/06/28 02:47:29;;;;;;;;;;;;;;;;;;1444490;41;7192;-60
2021/06/28 02:48:32;;;;;;;;;;;;;;;;;;1442201;41;7017;-60
2021/06/28 02:49:34;;;;;;;;;;;;;;;;;;1446566;41;7008;-60
2021/06/28 02:50:37;;;;;;;;;;;;;;;;;;1446551;41;7008;-60
2021/06/28 02:51:39;;;;;;;;;;;;;;;;;;1446564;41;7039;-60
2021/06/28 02:52:42;;;;;;;;;;;;;;;;;;1446860;41;7013;-60
2021/06/28 02:53:44;;;;;;;;;;;;;;;;;;1450410;41;7012;-60
2021/06/28 02:54:47;;;;;;;;;;;;;;;;;;1447742;41;7012;-60
2021/06/28 02:55:51;;;;;;;;;;;;;;;;;;1446804;41;7031;-60
2021/06/28 02:56:53;;;;;;;;;;;;;;;;;;1449280;41;7915;-60
2021/06/28 02:57:55;;;;;;;;;;;;;;;;;;1450201;41;7005;-59
2021/06/28 02:58:58;;;;;;;;;;;;;;;;;;1450607;41;7004;-59
2021/06/28 03:00:01;;;;;;;;;;;;;;;;;;1449630;41;7028;-60
2021/06/28 03:01:03;;;;;;;;;;;;;;;;;;1447054;41;7052;-60
2021/06/28 03:02:06;;;;;;;;;;;;;;;;;;1447417;41;7000;-60
2021/06/28 03:03:09;;;;;;;;;;;;;;;;;;1446914;41;7000;-60
2021/06/28 03:04:13;;;;;;;;;;;;;;;;;;1449734;41;7053;-60
2021/06/28 03:05:15;;;;;;;;;;;;;;;;;;1450671;41;7008;-60
2021/06/28 03:06:19;;;;;;;;;;;;;;;;;;1446718;41;7040;-60
2021/06/28 03:07:21;;;;;;;;;;;;;;;;;;1446853;41;7193;-60
2021/06/28 03:08:23;;;;;;;;;;;;;;;;;;1446572;41;7892;-59
2021/06/28 03:09:26;;;;;;;;;;;;;;;;;;1446936;41;7929;-60
2021/06/28 03:10:28;;;;;;;;;;;;;;;;;;1446674;41;7055;-60
2021/06/28 03:11:31;;;;;;;;;;;;;;;;;;1446500;41;7053;-59
2021/06/28 03:12:33;;;;;;;;;;;;;;;;;;1450075;41;7036;-60
2021/06/28 03:13:39;;;;;;;;;;;;;;;;;;1450357;41;7008;-60
2021/06/28 03:14:41;;;;;;;;;;;;;;;;;;1450379;41;7035;-60
2021/06/28 03:15:44;;;;;;;;;;;;;;;;;;1448418;41;7008;-59
2021/06/28 03:16:46;;;;;;;;;;;;;;;;;;1447222;41;7032;-60
2021/06/28 03:17:49;;;;;;;;;;;;;;;;;;1450697;41;7016;-60
2021/06/28 03:18:52;;;;;;;;;;;;;;;;;;1450521;41;7031;-60
2021/06/28 03:19:54;;;;;;;;;;;;;;;;;;1447813;40;7052;-60
2021/06/28 03:20:56;;;;;;;;;;;;;;;;;;1450198;41;7193;-60
2021/06/28 03:21:59;;;;;;;;;;;;;;;;;;1450586;41;7051;-60
2021/06/28 03:23:02;;;;;;;;;;;;;;;;;;1449714;40;7000;-60
2021/06/28 03:24:04;;;;;;;;;;;;;;;;;;1449091;41;7907;-60
2021/06/28 03:25:08;;;;;;;;;;;;;;;;;;1446283;41;7000;-60
2021/06/28 03:26:11;;;;;;;;;;;;;;;;;;1447240;41;7244;-60
2021/06/28 03:27:14;;;;;;;;;;;;;;;;;;1446073;41;7036;-60
2021/06/28 03:28:17;;;;;;;;;;;;;;;;;;1446363;41;7004;-60
2021/06/28 03:29:19;;;;;;;;;;;;;;;;;;1449638;41;7000;-60
2021/06/28 03:30:22;;;;;;;;;;;;;;;;;;1449391;41;6984;-60
2021/06/28 03:31:26;;;;;;;;;;;;;;;;;;1449831;41;7055;-60
2021/06/28 03:32:29;;;;;;;;;;;;;;;;;;1450073;41;7009;-60
2021/06/28 03:33:32;;;;;;;;;;;;;;;;;;1446241;41;7000;-59
2021/06/28 03:34:34;;;;;;;;;;;;;;;;;;1449201;41;7176;-60
2021/06/28 03:35:37;;;;;;;;;;;;;;;;;;1446519;41;7004;-60
2021/06/28 03:36:41;;;;;;;;;;;;;;;;;;1446774;41;7035;-60
2021/06/28 03:37:44;;;;;;;;;;;;;;;;;;1446008;41;7036;-60
2021/06/28 03:38:46;;;;;;;;;;;;;;;;;;1445904;41;7012;-60
2021/06/28 03:39:49;;;;;;;;;;;;;;;;;;1446686;41;7866;-60
2021/06/28 03:40:51;;;;;;;;;;;;;;;;;;1447020;41;7173;-60
2021/06/28 03:41:54;;;;;;;;;;;;;;;;;;1449890;41;7068;-60
2021/06/28 03:42:57;;;;;;;;;;;;;;;;;;1450264;41;7206;-60
2021/06/28 03:44:00;;;;;;;;;;;;;;;;;;1450368;41;7004;-60
2021/06/28 03:45:04;;;;;;;;;;;;;;;;;;1450101;41;8020;-60
2021/06/28 03:46:07;;;;;;;;;;;;;;;;;;1447520;41;7193;-60
2021/06/28 03:47:09;;;;;;;;;;;;;;;;;;1446615;41;7000;-60
2021/06/28 03:48:13;;;;;;;;;;;;;;;;;;1446551;41;7052;-60
2021/06/28 03:49:15;;;;;;;;;;;;;;;;;;1446356;41;7192;-60
2021/06/28 03:50:18;;;;;;;;;;;;;;;;;;1446660;41;7045;-59
2021/06/28 03:51:20;;;;;;;;;;;;;;;;;;1446920;41;7004;-60
2021/06/28 03:52:22;;;;;;;;;;;;;;;;;;1449908;41;7065;-59
2021/06/28 03:53:25;;;;;;;;;;;;;;;;;;1450441;41;7336;-60
2021/06/28 03:54:27;;;;;;;;;;;;;;;;;;1448125;41;7008;-60
2021/06/28 03:55:30;;;;;;;;;;;;;;;;;;1446454;41;7012;-60
2021/06/28 03:56:32;;;;;;;;;;;;;;;;;;1446416;41;7040;-60
2021/06/28 03:57:35;;;;;;;;;;;;;;;;;;1446368;41;7004;-60
2021/06/28 03:58:38;;;;;;;;;;;;;;;;;;1446347;41;7911;-60
2021/06/28 03:59:40;;;;;;;;;;;;;;;;;;1446897;41;7008;-60
2021/06/28 04:00:45;;;;;;;;;;;;;;;;;;1450117;41;7331;-60
2021/06/28 04:01:48;;;;;;;;;;;;;;;;;;1450964;41;7009;-60
2021/06/28 04:02:52;;;;;;;;;;;;;;;;;;1450888;41;7056;-60
2021/06/28 04:03:55;;;;;;;;;;;;;;;;;;1450788;41;7013;-60
2021/06/28 04:04:57;;;;;;;;;;;;;;;;;;1450756;41;7035;-60
2021/06/28 04:06:03;;;;;;;;;;;;;;;;;;1450423;41;7203;-60
2021/06/28 04:07:05;;;;;;;;;;;;;;;;;;1450598;41;7040;-60
2021/06/28 04:08:08;;;;;;;;;;;;;;;;;;1450859;41;7008;-59
2021/06/28 04:09:10;;;;;;;;;;;;;;;;;;1450159;41;7128;-60
2021/06/28 04:10:19;;;;;;;;;;;;;;;;;;1450103;41;7013;-60
2021/06/28 04:11:21;;;;;;;;;;;;;;;;;;1450286;41;7012;-60
2021/06/28 04:12:24;;;;;;;;;;;;;;;;;;1449785;41;7748;-59
2021/06/28 04:13:27;;;;;;;;;;;;;;;;;;1447143;41;7004;-60
2021/06/28 04:14:29;;;;;;;;;;;;;;;;;;1446405;41;7012;-60
2021/06/28 04:15:32;;;;;;;;;;;;;;;;;;1446494;41;7031;-60
2021/06/28 04:16:35;;;;;;;;;;;;;;;;;;1446619;41;7044;-60
2021/06/28 04:17:39;;;;;;;;;;;;;;;;;;1450006;41;7017;-60
2021/06/28 04:18:41;;;;;;;;;;;;;;;;;;1449420;41;6996;-60
2021/06/28 04:19:43;;;;;;;;;;;;;;;;;;1449908;41;7110;-60
2021/06/28 04:20:46;;;;;;;;;;;;;;;;;;1449830;41;7028;-60
2021/06/28 04:21:48;;;;;;;;;;;;;;;;;;1450228;41;7020;-60
2021/06/28 04:22:52;;;;;;;;;;;;;;;;;;1450098;41;7012;-60
2021/06/28 04:23:55;;;;;;;;;;;;;;;;;;1449733;41;7013;-60
2021/06/28 04:24:57;;;;;;;;;;;;;;;;;;1449978;41;7204;-60
2021/06/28 04:26:00;;;;;;;;;;;;;;;;;;1450138;41;7025;-60
2021/06/28 04:27:02;;;;;;;;;;;;;;;;;;1450192;41;7032;-59
2021/06/28 04:28:05;;;;;;;;;;;;;;;;;;1449477;41;7901;-60
2021/06/28 04:29:07;;;;;;;;;;;;;;;;;;1449539;41;7000;-60
2021/06/28 04:30:11;;;;;;;;;;;;;;;;;;1449689;41;7004;-60
2021/06/28 04:31:14;;;;;;;;;;;;;;;;;;1449682;41;7162;-60
2021/06/28 04:32:16;;;;;;;;;;;;;;;;;;1449839;41;7004;-60
2021/06/28 04:33:19;;;;;;;;;;;;;;;;;;1449989;41;7048;-60
2021/06/28 04:34:21;;;;;;;;;;;;;;;;;;1450227;41;7000;-60
2021/06/28 04:35:28;;;;;;;;;;;;;;;;;;1450913;40;7000;-60
2021/06/28 04:36:30;;;;;;;;;;;;;;;;;;1451015;41;7004;-60
2021/06/28 04:37:33;;;;;;;;;;;;;;;;;;1450412;41;7102;-60
2021/06/28 04:38:36;;;;;;;;;;;;;;;;;;1450487;41;7036;-60
2021/06/28 04:39:39;;;;;;;;;;;;;;;;;;1450896;41;7987;-60
2021/06/28 04:40:41;;;;;;;;;;;;;;;;;;1450811;41;7896;-60
2021/06/28 04:41:44;;;;;;;;;;;;;;;;;;1450641;41;7036;-60
2021/06/28 04:42:46;;;;;;;;;;;;;;;;;;1450779;41;7016;-60
2021/06/28 04:43:49;;;;;;;;;;;;;;;;;;1450893;41;8053;-60
2021/06/28 04:44:51;;;;;;;;;;;;;;;;;;1450902;41;7016;-60
2021/06/28 04:45:54;;;;;;;;;;;;;;;;;;1450489;41;7283;-60
2021/06/28 04:46:56;;;;;;;;;;;;;;;;;;1450922;41;7028;-60
2021/06/28 04:47:59;;;;;;;;;;;;;;;;;;1450959;41;7948;-60
2021/06/28 04:49:01;;;;;;;;;;;;;;;;;;1450902;41;7908;-60
2021/06/28 04:50:04;;;;;;;;;;;;;;;;;;1450556;41;7032;-60
2021/06/28 04:51:07;;;;;;;;;;;;;;;;;;1451274;41;7012;-60
2021/06/28 04:52:09;;;;;;;;;;;;;;;;;;1446093;41;7016;-60
2021/06/28 04:53:12;;;;;;;;;;;;;;;;;;1446874;41;7031;-60
2021/06/28 04:54:14;;;;;;;;;;;;;;;;;;1450933;41;7980;-60
2021/06/28 04:55:17;;;;;;;;;;;;;;;;;;1450938;41;7060;-60
2021/06/28 04:56:19;;;;;;;;;;;;;;;;;;1450867;41;7032;-60
2021/06/28 04:57:22;;;;;;;;;;;;;;;;;;1451190;41;7004;-60
2021/06/28 04:58:24;;;;;;;;;;;;;;;;;;1450832;41;7004;-60
2021/06/28 04:59:26;;;;;;;;;;;;;;;;;;1451450;41;7041;-60
2021/06/28 05:00:29;;;;;;;;;;;;;;;;;;1450856;41;7181;-60
2021/06/28 05:01:31;;;;;;;;;;;;;;;;;;1450666;41;7028;-60
2021/06/28 05:02:34;;;;;;;;;;;;;;;;;;1450726;41;7111;-60
2021/06/28 05:03:36;;;;;;;;;;;;;;;;;;1450761;41;7028;-60
2021/06/28 05:04:38;;;;;;;;;;;;;;;;;;1451156;40;7017;-60
2021/06/28 05:05:41;;;;;;;;;;;;;;;;;;1450617;41;7984;-60
2021/06/28 05:06:43;;;;;;;;;;;;;;;;;;1451065;41;7013;-60
2021/06/28 05:07:45;;;;;;;;;;;;;;;;;;1450678;41;7036;-60
2021/06/28 05:08:48;;;;;;;;;;;;;;;;;;1450699;41;7031;-60
2021/06/28 05:09:50;;;;;;;;;;;;;;;;;;1451119;41;7965;-59
2021/06/28 05:10:53;;;;;;;;;;;;;;;;;;1450998;41;7000;-60
2021/06/28 05:11:55;;;;;;;;;;;;;;;;;;1450641;41;7008;-60
2021/06/28 05:12:58;;;;;;;;;;;;;;;;;;1451193;41;7024;-60
2021/06/28 05:14:00;;;;;;;;;;;;;;;;;;1450714;41;7036;-60
2021/06/28 05:15:05;;;;;;;;;;;;;;;;;;1450471;41;7215;-60
2021/06/28 05:16:07;;;;;;;;;;;;;;;;;;1450679;41;7512;-60
2021/06/28 05:17:09;;;;;;;;;;;;;;;;;;1450542;41;7961;-60
2021/06/28 05:18:12;;;;;;;;;;;;;;;;;;1450781;41;7009;-60
2021/06/28 05:19:14;;;;;;;;;;;;;;;;;;1451042;41;7052;-60
2021/06/28 05:20:17;;;;;;;;;;;;;;;;;;1450599;41;7009;-60
2021/06/28 05:21:19;;;;;;;;;;;;;;;;;;1450444;41;7004;-60
2021/06/28 05:22:22;;;;;;;;;;;;;;;;;;1446794;41;7040;-60
2021/06/28 05:23:24;;;;;;;;;;;;;;;;;;1446877;41;7040;-60
2021/06/28 05:24:26;;;;;;;;;;;;;;;;;;1446564;41;7009;-60
2021/06/28 05:25:29;;;;;;;;;;;;;;;;;;1447119;41;7004;-60
2021/06/28 05:26:34;;;;;;;;;;;;;;;;;;1447437;41;7008;-60
2021/06/28 05:27:36;;;;;;;;;;;;;;;;;;1447029;41;7004;-61
2021/06/28 05:28:39;;;;;;;;;;;;;;;;;;1446836;41;7088;-60
2021/06/28 05:29:41;;;;;;;;;;;;;;;;;;1450521;41;9567;-60
2021/06/28 05:30:43;;;;;;;;;;;;;;;;;;1449760;40;7115;-60
2021/06/28 05:31:46;;;;;;;;;;;;;;;;;;1448666;41;7012;-60
2021/06/28 05:32:48;;;;;;;;;;;;;;;;;;1449012;40;7004;-60
2021/06/28 05:33:51;;;;;;;;;;;;;;;;;;1447849;40;7140;-60
2021/06/28 05:34:53;;;;;;;;;;;;;;;;;;1448968;40;7009;-60
2021/06/28 05:35:56;;;;;;;;;;;;;;;;;;1449650;40;7174;-60
2021/06/28 05:36:58;;;;;;;;;;;;;;;;;;1448128;40;7001;-60
2021/06/28 05:38:00;;;;;;;;;;;;;;;;;;1448923;40;7041;-60
2021/06/28 05:39:04;;;;;;;;;;;;;;;;;;1447700;41;7000;-60
2021/06/28 05:40:08;;;;;;;;;;;;;;;;;;1448195;40;7000;-60
2021/06/28 05:41:10;;;;;;;;;;;;;;;;;;1449781;40;7032;-60
2021/06/28 05:42:13;;;;;;;;;;;;;;;;;;1449616;40;7235;-60
2021/06/28 05:43:15;;;;;;;;;;;;;;;;;;1449416;40;7004;-60
2021/06/28 05:44:18;;;;;;;;;;;;;;;;;;1449079;41;7017;-60
2021/06/28 05:45:20;;;;;;;;;;;;;;;;;;1448297;41;7870;-60
2021/06/28 05:46:23;;;;;;;;;;;;;;;;;;1449336;40;7028;-60
2021/06/28 05:47:25;;;;;;;;;;;;;;;;;;1448063;40;7005;-60
2021/06/28 05:48:27;;;;;;;;;;;;;;;;;;1448776;40;7004;-60
2021/06/28 05:49:35;;;;;;;;;;;;;;;;;;1449343;40;7040;-60
2021/06/28 05:50:38;;;;;;;;;;;;;;;;;;1448401;40;7009;-60
2021/06/28 05:51:40;;;;;;;;;;;;;;;;;;1449663;40;7032;-60
2021/06/28 05:52:43;;;;;;;;;;;;;;;;;;1448756;40;6996;-60
2021/06/28 05:53:49;;;;;;;;;;;;;;;;;;1448148;41;7025;-60
2021/06/28 05:54:53;;;;;;;;;;;;;;;;;;1448569;40;7197;-60
2021/06/28 05:55:58;;;;;;;;;;;;;;;;;;1449048;41;7971;-60
2021/06/28 05:57:00;;;;;;;;;;;;;;;;;;1449518;40;7020;-60
2021/06/28 05:58:03;;;;;;;;;;;;;;;;;;1448322;41;7032;-60
2021/06/28 05:59:05;;;;;;;;;;;;;;;;;;1449373;40;7020;-60
2021/06/28 06:00:09;;;;;;;;;;;;;;;;;;1449962;41;7044;-60
2021/06/28 06:01:13;;;;;;;;;;;;;;;;;;1449379;40;7012;-60
2021/06/28 06:02:15;;;;;;;;;;;;;;;;;;1448469;41;7013;-60
2021/06/28 06:03:18;;;;;;;;;;;;;;;;;;1448825;40;7035;-60
2021/06/28 06:04:20;;;;;;;;;;;;;;;;;;1449397;40;7008;-60
2021/06/28 06:05:23;;;;;;;;;;;;;;;;;;1446170;41;7035;-60
2021/06/28 06:06:25;;;;;;;;;;;;;;;;;;1446313;41;7017;-60
2021/06/28 06:07:27;;;;;;;;;;;;;;;;;;1448457;41;7080;-60
2021/06/28 06:08:30;;;;;;;;;;;;;;;;;;1450505;41;7016;-60
2021/06/28 06:09:33;;;;;;;;;;;;;;;;;;1450292;41;7004;-60
2021/06/28 06:10:35;;;;;;;;;;;;;;;;;;1450597;41;7024;-60
2021/06/28 06:11:38;;;;;;;;;;;;;;;;;;1446915;41;7004;-60
2021/06/28 06:12:41;;;;;;;;;;;;;;;;;;1449253;40;7035;-60
2021/06/28 06:13:47;;;;;;;;;;;;;;;;;;1450221;40;7036;-60
2021/06/28 06:14:49;;;;;;;;;;;;;;;;;;1446790;41;7017;-60
2021/06/28 06:15:53;;;;;;;;;;;;;;;;;;1446773;41;7008;-60
2021/06/28 06:16:55;;;;;;;;;;;;;;;;;;1446745;41;7115;-60
2021/06/28 06:17:58;;;;;;;;;;;;;;;;;;1448374;40;7052;-61
2021/06/28 06:19:00;;;;;;;;;;;;;;;;;;1449463;40;7009;-60
2021/06/28 06:20:04;;;;;;;;;;;;;;;;;;1450622;41;7040;-60
2021/06/28 06:21:06;;;;;;;;;;;;;;;;;;1449287;41;7000;-61
2021/06/28 06:22:09;;;;;;;;;;;;;;;;;;1447244;41;7464;-60
2021/06/28 06:23:12;;;;;;;;;;;;;;;;;;1448454;41;7016;-60
2021/06/28 06:24:15;;;;;;;;;;;;;;;;;;1450037;41;7045;-60
2021/06/28 06:25:17;;;;;;;;;;;;;;;;;;1450118;41;7522;-60
2021/06/28 06:26:20;;;;;;;;;;;;;;;;;;1450100;41;7028;-61
2021/06/28 06:27:22;;;;;;;;;;;;;;;;;;1450425;41;7044;-61
2021/06/28 06:28:24;;;;;;;;;;;;;;;;;;1449112;40;7013;-60
2021/06/28 06:29:27;;;;;;;;;;;;;;;;;;1448033;40;7114;-60
2021/06/28 06:30:29;;;;;;;;;;;;;;;;;;1448626;40;7028;-60
2021/06/28 06:31:32;;;;;;;;;;;;;;;;;;1448341;40;8099;-60
2021/06/28 06:32:34;;;;;;;;;;;;;;;;;;1448502;40;7257;-61
2021/06/28 06:33:37;;;;;;;;;;;;;;;;;;1448172;41;7004;-60
2021/06/28 06:34:39;;;;;;;;;;;;;;;;;;1446603;41;7009;-60
2021/06/28 06:35:42;;;;;;;;;;;;;;;;;;1446206;40;7008;-60
2021/06/28 06:36:44;;;;;;;;;;;;;;;;;;1448617;41;7000;-60
2021/06/28 06:37:48;;;;;;;;;;;;;;;;;;1448372;40;7000;-59
2021/06/28 06:38:50;;;;;;;;;;;;;;;;;;1448531;40;7004;-60
2021/06/28 06:39:53;;;;;;;;;;;;;;;;;;1449196;41;7217;-61
2021/06/28 06:40:55;;;;;;;;;;;;;;;;;;1449062;40;7008;-61
2021/06/28 06:41:59;;;;;;;;;;;;;;;;;;1448714;40;7009;-60
2021/06/28 06:43:01;;;;;;;;;;;;;;;;;;1448968;40;7008;-61
2021/06/28 06:44:04;;;;;;;;;;;;;;;;;;1449493;40;7000;-61
2021/06/28 06:45:07;;;;;;;;;;;;;;;;;;1449903;41;7048;-60
2021/06/28 06:46:10;;;;;;;;;;;;;;;;;;1450372;40;7028;-61
2021/06/28 06:47:12;;;;;;;;;;;;;;;;;;1450541;41;7925;-61
2021/06/28 06:48:15;;;;;;;;;;;;;;;;;;1449567;41;7004;-60
2021/06/28 06:49:18;;;;;;;;;;;;;;;;;;1448954;41;7009;-60
2021/06/28 06:50:20;;;;;;;;;;;;;;;;;;1450920;41;7035;-61
2021/06/28 06:51:23;;;;;;;;;;;;;;;;;;1451015;41;7008;-60
2021/06/28 06:52:25;;;;;;;;;;;;;;;;;;1450932;41;7069;-61
2021/06/28 06:53:28;;;;;;;;;;;;;;;;;;1450713;41;7228;-60
2021/06/28 06:54:30;;;;;;;;;;;;;;;;;;1448693;41;7049;-60
2021/06/28 06:55:34;;;;;;;;;;;;;;;;;;1446453;41;7020;-60
2021/06/28 06:56:37;;;;;;;;;;;;;;;;;;1449953;41;7012;-60
2021/06/28 06:57:40;;;;;;;;;;;;;;;;;;1450504;41;7941;-61
2021/06/28 06:58:43;;;;;;;;;;;;;;;;;;1449630;40;7052;-60
2021/06/28 06:59:45;;;;;;;;;;;;;;;;;;1449621;40;7013;-60
2021/06/28 07:00:47;;;;;;;;;;;;;;;;;;1449539;41;7024;-60
2021/06/28 07:01:50;;;;;;;;;;;;;;;;;;1449660;40;7008;-61
2021/06/28 07:02:54;;;;;;;;;;;;;;;;;;1445062;41;7008;-60
2021/06/28 07:03:56;;;;;;;;;;;;;;;;;;1442411;41;7934;-61
2021/06/28 07:04:58;;;;;;;;;;;;;;;;;;1446262;41;7092;-60
2021/06/28 07:06:01;;;;;;;;;;;;;;;;;;1450749;41;7969;-60
2021/06/28 07:07:03;;;;;;;;;;;;;;;;;;1450747;41;7004;-61
2021/06/28 07:08:06;;;;;;;;;;;;;;;;;;1450399;40;7911;-61
2021/06/28 07:09:08;;;;;;;;;;;;;;;;;;1450600;41;7012;-60
2021/06/28 07:10:12;;;;;;;;;;;;;;;;;;1450527;41;7023;-60
2021/06/28 07:11:15;;;;;;;;;;;;;;;;;;1450417;41;7113;-60
2021/06/28 07:12:18;;;;;;;;;;;;;;;;;;1447530;41;7024;-60
2021/06/28 07:13:20;;;;;;;;;;;;;;;;;;1446791;41;7014;-60
2021/06/28 07:14:24;;;;;;;;;;;;;;;;;;1450180;41;7044;-60
2021/06/28 07:15:26;;;;;;;;;;;;;;;;;;1450405;41;7094;-60
2021/06/28 07:16:31;;;;;;;;;;;;;;;;;;1450771;41;7028;-60